Besiktas Bosphorus — TCOG3 — position and weather

sailwx.info

Track history (hours):
 
Tides and Currents Weather Stations Pressure Air Temp Water Temp Dewpoint Dewpoint Depression Visibility Wind Speed Wind Dir Waves Ship Positions

Besiktas Bosphorus

Last reported at 2017-Jan-12 16:26 UTC. Time now 2017-Jan-21 08:46 UTC.
Position N 44°35' E 037°30'.
Warning: this ship's position is 8 days out of date.

Length 274 m; draft 6.2 m.

Type: Ship (hazmat cat A). MMSI: 271000817.

Date/timePositionNaut miles runAvg speedWind from/ knotsBaromVisibWave heightAir tempDewpointWater temp
2017-Jan-12 16:26N 44°35' E 037°30'1 1.3
2017-Jan-12 15:33N 44°35' E 037°31'2 2.5
2017-Jan-12 14:33N 44°33' E 037°33'3 2.8
2017-Jan-12 13:33N 44°31' E 037°36'4 3.5
2017-Jan-12 12:33N 44°30' E 037°41'4 4.1
2017-Jan-12 11:33N 44°31' E 037°47'3 2.6
2017-Jan-12 10:33N 44°29' E 037°50'3 2.6
2017-Jan-12 09:33N 44°28' E 037°53'3 2.7
2017-Jan-12 08:33N 44°26' E 037°56'2 2.3
2017-Jan-12 07:33N 44°26' E 037°59'5 4.7
2017-Jan-12 06:33N 44°30' E 037°56'5 4.9
2017-Jan-12 05:33N 44°34' E 037°54'0 0.1
2017-Jan-12 04:33N 44°35' E 037°54'0 0.0
2017-Jan-12 03:33N 44°35' E 037°54'0 0.0
2017-Jan-12 02:33N 44°35' E 037°54'0 0.0
2017-Jan-12 01:33N 44°34' E 037°54'0 0.0
2017-Jan-12 00:33N 44°34' E 037°54'0 0.1
2017-Jan-11 23:33N 44°34' E 037°54'0 0.0
2017-Jan-11 22:33N 44°34' E 037°54'0 0.0
2017-Jan-11 21:33N 44°34' E 037°54'0 0.1
2017-Jan-11 20:33N 44°34' E 037°54'0 0.1
2017-Jan-11 19:30N 44°34' E 037°55'0 0.0
2017-Jan-11 18:33N 44°34' E 037°55'0 0.0
2017-Jan-11 17:33N 44°34' E 037°55'0 0.0
2017-Jan-11 16:33N 44°34' E 037°55'0 0.0
2017-Jan-11 15:33N 44°34' E 037°55'0 0.0
2017-Jan-11 14:33N 44°34' E 037°55'0 0.0
2017-Jan-11 13:33N 44°34' E 037°55'0 0.1
2017-Jan-11 12:33N 44°34' E 037°54'0 0.1
2017-Jan-11 11:33N 44°34' E 037°54'0 0.1
2017-Jan-11 10:33N 44°34' E 037°54'0 0.0
2017-Jan-11 09:33N 44°34' E 037°54'0 0.0
2017-Jan-11 08:30N 44°34' E 037°54'0 0.0
2017-Jan-11 07:33N 44°34' E 037°54'0 0.0
2017-Jan-11 06:33N 44°34' E 037°54'0 0.0
2017-Jan-11 05:33N 44°34' E 037°54'0 0.0
2017-Jan-11 04:33N 44°34' E 037°54'0 0.0
2017-Jan-11 03:33N 44°34' E 037°54'0 0.0
2017-Jan-11 02:33N 44°34' E 037°54'0 0.0
2017-Jan-11 01:33N 44°34' E 037°54'0 0.0
2017-Jan-11 00:33N 44°34' E 037°54'0 0.0
2017-Jan-10 23:33N 44°34' E 037°54'0 0.0
2017-Jan-10 22:30N 44°34' E 037°54'0 0.0
2017-Jan-10 21:33N 44°34' E 037°54'0 0.0
2017-Jan-10 20:33N 44°34' E 037°54'0 0.0
2017-Jan-10 19:33N 44°34' E 037°54'0 0.0
2017-Jan-10 18:33N 44°34' E 037°54'0 0.0
2017-Jan-10 17:33N 44°34' E 037°54'0 0.1
2017-Jan-10 16:33N 44°34' E 037°54'0 0.0
2017-Jan-10 15:33N 44°34' E 037°54'0 0.1
2017-Jan-10 14:33N 44°34' E 037°54'0 0.0
2017-Jan-10 13:33N 44°34' E 037°54'0 0.0
2017-Jan-10 12:33N 44°34' E 037°54'0 0.0
2017-Jan-10 11:33N 44°34' E 037°54'0 0.0
2017-Jan-10 10:33N 44°34' E 037°54'0 0.0
2017-Jan-10 09:33N 44°34' E 037°54'0 0.0
2017-Jan-10 08:33N 44°34' E 037°54'0 0.0
2017-Jan-10 07:33N 44°34' E 037°54'0 0.1
2017-Jan-10 06:33N 44°34' E 037°54'0 0.1
2017-Jan-10 05:33N 44°34' E 037°54'0 0.0
2017-Jan-10 04:33N 44°34' E 037°54'0 0.1
2017-Jan-10 03:33N 44°34' E 037°54'2 1.6
2017-Jan-10 02:33N 44°34' E 037°52'5 4.6
2017-Jan-10 01:34N 44°34' E 037°46'1 1.3
2017-Jan-10 00:33N 44°34' E 037°44'2 2.3
2017-Jan-09 23:34N 44°34' E 037°41'5 5.4
2017-Jan-09 22:33N 44°35' E 037°33'8 7.9
2017-Jan-09 21:33N 44°34' E 037°22'14 1.0
2017-Jan-09 07:33N 44°24' E 037°09'4 4.2
2017-Jan-09 06:33N 44°20' E 037°08'  
2017-Jan-04 14:18N 44°30' E 037°21'6 7.9
2017-Jan-04 13:33N 44°33' E 037°28'2 1.7
2017-Jan-04 12:33N 44°31' E 037°29'5 5.5
2017-Jan-04 11:33N 44°34' E 037°36'1 0.8
2017-Jan-04 10:33N 44°34' E 037°36'1 0.9
2017-Jan-04 09:33N 44°35' E 037°35'2 2.2
2017-Jan-04 08:34N 44°34' E 037°38'1111.3
2017-Jan-04 07:33N 44°26' E 037°27'1110.9
2017-Jan-04 06:33N 44°19' E 037°16'  
Track history (hours):
 
Tides and Currents Weather Stations Pressure Air Temp Water Temp Dewpoint Dewpoint Depression Visibility Wind Speed Wind Dir Waves Ship Positions

Besiktas Bosphorus

Last reported at 2017-Jan-12 16:26 UTC. Time now 2017-Jan-21 08:46 UTC.
Position N 44°35' E 037°30'.
Warning: this ship's position is 8 days out of date.

Length 274 m; draft 6.2 m.

Type: Ship (hazmat cat A). MMSI: 271000817.

Date/timePositionNaut miles runAvg speedWind from/ knotsBaromVisibWave heightAir tempDewpointWater temp
2017-Jan-12 16:26N 44°35' E 037°30'1 1.3
2017-Jan-12 15:33N 44°35' E 037°31'2 2.5
2017-Jan-12 14:33N 44°33' E 037°33'3 2.8
2017-Jan-12 13:33N 44°31' E 037°36'4 3.5
2017-Jan-12 12:33N 44°30' E 037°41'4 4.1
2017-Jan-12 11:33N 44°31' E 037°47'3 2.6
2017-Jan-12 10:33N 44°29' E 037°50'3 2.6
2017-Jan-12 09:33N 44°28' E 037°53'3 2.7
2017-Jan-12 08:33N 44°26' E 037°56'2 2.3
2017-Jan-12 07:33N 44°26' E 037°59'5 4.7
2017-Jan-12 06:33N 44°30' E 037°56'5 4.9
2017-Jan-12 05:33N 44°34' E 037°54'0 0.1
2017-Jan-12 04:33N 44°35' E 037°54'0 0.0
2017-Jan-12 03:33N 44°35' E 037°54'0 0.0
2017-Jan-12 02:33N 44°35' E 037°54'0 0.0
2017-Jan-12 01:33N 44°34' E 037°54'0 0.0
2017-Jan-12 00:33N 44°34' E 037°54'0 0.1
2017-Jan-11 23:33N 44°34' E 037°54'0 0.0
2017-Jan-11 22:33N 44°34' E 037°54'0 0.0
2017-Jan-11 21:33N 44°34' E 037°54'0 0.1
2017-Jan-11 20:33N 44°34' E 037°54'0 0.1
2017-Jan-11 19:30N 44°34' E 037°55'0 0.0
2017-Jan-11 18:33N 44°34' E 037°55'0 0.0
2017-Jan-11 17:33N 44°34' E 037°55'0 0.0
2017-Jan-11 16:33N 44°34' E 037°55'0 0.0
2017-Jan-11 15:33N 44°34' E 037°55'0 0.0
2017-Jan-11 14:33N 44°34' E 037°55'0 0.0
2017-Jan-11 13:33N 44°34' E 037°55'0 0.1
2017-Jan-11 12:33N 44°34' E 037°54'0 0.1
2017-Jan-11 11:33N 44°34' E 037°54'0 0.1
2017-Jan-11 10:33N 44°34' E 037°54'0 0.0
2017-Jan-11 09:33N 44°34' E 037°54'0 0.0
2017-Jan-11 08:30N 44°34' E 037°54'0 0.0
2017-Jan-11 07:33N 44°34' E 037°54'0 0.0
2017-Jan-11 06:33N 44°34' E 037°54'0 0.0
2017-Jan-11 05:33N 44°34' E 037°54'0 0.0
2017-Jan-11 04:33N 44°34' E 037°54'0 0.0
2017-Jan-11 03:33N 44°34' E 037°54'0 0.0
2017-Jan-11 02:33N 44°34' E 037°54'0 0.0
2017-Jan-11 01:33N 44°34' E 037°54'0 0.0
2017-Jan-11 00:33N 44°34' E 037°54'0 0.0
2017-Jan-10 23:33N 44°34' E 037°54'0 0.0
2017-Jan-10 22:30N 44°34' E 037°54'0 0.0
2017-Jan-10 21:33N 44°34' E 037°54'0 0.0
2017-Jan-10 20:33N 44°34' E 037°54'0 0.0
2017-Jan-10 19:33N 44°34' E 037°54'0 0.0
2017-Jan-10 18:33N 44°34' E 037°54'0 0.0
2017-Jan-10 17:33N 44°34' E 037°54'0 0.1
2017-Jan-10 16:33N 44°34' E 037°54'0 0.0
2017-Jan-10 15:33N 44°34' E 037°54'0 0.1
2017-Jan-10 14:33N 44°34' E 037°54'0 0.0
2017-Jan-10 13:33N 44°34' E 037°54'0 0.0
2017-Jan-10 12:33N 44°34' E 037°54'0 0.0
2017-Jan-10 11:33N 44°34' E 037°54'0 0.0
2017-Jan-10 10:33N 44°34' E 037°54'0 0.0
2017-Jan-10 09:33N 44°34' E 037°54'0 0.0
2017-Jan-10 08:33N 44°34' E 037°54'0 0.0
2017-Jan-10 07:33N 44°34' E 037°54'0 0.1
2017-Jan-10 06:33N 44°34' E 037°54'0 0.1
2017-Jan-10 05:33N 44°34' E 037°54'0 0.0
2017-Jan-10 04:33N 44°34' E 037°54'0 0.1
2017-Jan-10 03:33N 44°34' E 037°54'2 1.6
2017-Jan-10 02:33N 44°34' E 037°52'5 4.6
2017-Jan-10 01:34N 44°34' E 037°46'1 1.3
2017-Jan-10 00:33N 44°34' E 037°44'2 2.3
2017-Jan-09 23:34N 44°34' E 037°41'5 5.4
2017-Jan-09 22:33N 44°35' E 037°33'8 7.9
2017-Jan-09 21:33N 44°34' E 037°22'14 1.0
2017-Jan-09 07:33N 44°24' E 037°09'4 4.2
2017-Jan-09 06:33N 44°20' E 037°08'  
2017-Jan-04 14:18N 44°30' E 037°21'6 7.9
2017-Jan-04 13:33N 44°33' E 037°28'2 1.7
2017-Jan-04 12:33N 44°31' E 037°29'5 5.5
2017-Jan-04 11:33N 44°34' E 037°36'1 0.8
2017-Jan-04 10:33N 44°34' E 037°36'1 0.9
2017-Jan-04 09:33N 44°35' E 037°35'2 2.2
2017-Jan-04 08:34N 44°34' E 037°38'1111.3
2017-Jan-04 07:33N 44°26' E 037°27'1110.9
2017-Jan-04 06:33N 44°19' E 037°16'  

Dump ship's entire track history